sensor_id;sensor_type;location;lat;lon;timestamp;P1;durP1;ratioP1;P2;durP2;ratioP2
3407;SDS011;1717;50.240;8.406;2022-10-16T00:01:24;4.60;;;4.23;;
3407;SDS011;1717;50.240;8.406;2022-10-16T00:03:52;5.07;;;4.43;;
3407;SDS011;1717;50.240;8.406;2022-10-16T00:06:21;4.90;;;4.43;;
3407;SDS011;1717;50.240;8.406;2022-10-16T00:08:48;5.40;;;4.90;;
3407;SDS011;1717;50.240;8.406;2022-10-16T00:11:19;5.30;;;4.40;;
3407;SDS011;1717;50.240;8.406;2022-10-16T00:13:48;5.57;;;5.10;;
3407;SDS011;1717;50.240;8.406;2022-10-16T00:16:17;6.07;;;5.57;;
3407;SDS011;1717;50.240;8.406;2022-10-16T00:18:46;6.07;;;5.20;;
3407;SDS011;1717;50.240;8.406;2022-10-16T00:21:14;6.53;;;5.80;;
3407;SDS011;1717;50.240;8.406;2022-10-16T00:23:43;6.67;;;6.07;;
3407;SDS011;1717;50.240;8.406;2022-10-16T00:26:11;5.70;;;5.20;;
3407;SDS011;1717;50.240;8.406;2022-10-16T00:28:40;6.23;;;5.27;;
3407;SDS011;1717;50.240;8.406;2022-10-16T00:31:08;6.57;;;5.97;;
3407;SDS011;1717;50.240;8.406;2022-10-16T00:33:37;8.60;;;5.73;;
3407;SDS011;1717;50.240;8.406;2022-10-16T00:36:06;6.20;;;5.60;;
3407;SDS011;1717;50.240;8.406;2022-10-16T00:38:36;7.90;;;5.40;;
3407;SDS011;1717;50.240;8.406;2022-10-16T00:41:02;6.33;;;5.70;;
3407;SDS011;1717;50.240;8.406;2022-10-16T00:43:34;5.83;;;5.33;;
3407;SDS011;1717;50.240;8.406;2022-10-16T00:46:05;4.77;;;4.37;;
3407;SDS011;1717;50.240;8.406;2022-10-16T00:48:45;5.80;;;5.30;;
3407;SDS011;1717;50.240;8.406;2022-10-16T00:51:18;4.00;;;3.70;;
3407;SDS011;1717;50.240;8.406;2022-10-16T00:53:48;5.80;;;5.30;;
3407;SDS011;1717;50.240;8.406;2022-10-16T00:56:16;5.90;;;5.30;;
3407;SDS011;1717;50.240;8.406;2022-10-16T00:58:43;6.20;;;5.60;;
3407;SDS011;1717;50.240;8.406;2022-10-16T01:01:10;6.43;;;5.00;;
3407;SDS011;1717;50.240;8.406;2022-10-16T01:03:37;5.63;;;5.10;;
3407;SDS011;1717;50.240;8.406;2022-10-16T01:06:10;5.80;;;5.30;;
3407;SDS011;1717;50.240;8.406;2022-10-16T01:08:48;5.53;;;4.90;;
3407;SDS011;1717;50.240;8.406;2022-10-16T01:11:25;5.60;;;5.10;;
3407;SDS011;1717;50.240;8.406;2022-10-16T01:13:57;5.53;;;5.03;;
3407;SDS011;1717;50.240;8.406;2022-10-16T01:16:31;5.60;;;4.93;;
3407;SDS011;1717;50.240;8.406;2022-10-16T01:19:08;5.50;;;5.00;;
3407;SDS011;1717;50.240;8.406;2022-10-16T01:21:38;5.73;;;5.20;;
3407;SDS011;1717;50.240;8.406;2022-10-16T01:24:11;6.13;;;5.47;;
3407;SDS011;1717;50.240;8.406;2022-10-16T01:29:39;6.97;;;5.60;;
3407;SDS011;1717;50.240;8.406;2022-10-16T01:32:13;6.40;;;5.67;;
3407;SDS011;1717;50.240;8.406;2022-10-16T01:34:46;5.40;;;4.90;;
3407;SDS011;1717;50.240;8.406;2022-10-16T01:37:16;7.33;;;5.47;;
3407;SDS011;1717;50.240;8.406;2022-10-16T01:39:48;5.93;;;5.33;;
3407;SDS011;1717;50.240;8.406;2022-10-16T01:42:19;6.10;;;5.13;;
3407;SDS011;1717;50.240;8.406;2022-10-16T01:44:49;5.50;;;5.00;;
3407;SDS011;1717;50.240;8.406;2022-10-16T01:47:18;5.73;;;5.17;;
3407;SDS011;1717;50.240;8.406;2022-10-16T01:49:48;4.70;;;4.30;;
3407;SDS011;1717;50.240;8.406;2022-10-16T01:52:17;5.23;;;4.73;;
3407;SDS011;1717;50.240;8.406;2022-10-16T01:54:49;5.43;;;4.93;;
3407;SDS011;1717;50.240;8.406;2022-10-16T01:57:19;4.10;;;3.80;;
3407;SDS011;1717;50.240;8.406;2022-10-16T01:59:51;5.37;;;4.87;;
3407;SDS011;1717;50.240;8.406;2022-10-16T02:02:21;4.90;;;4.50;;
3407;SDS011;1717;50.240;8.406;2022-10-16T02:04:53;5.00;;;4.37;;
3407;SDS011;1717;50.240;8.406;2022-10-16T02:07:24;5.53;;;5.07;;
3407;SDS011;1717;50.240;8.406;2022-10-16T02:09:51;6.63;;;5.77;;
3407;SDS011;1717;50.240;8.406;2022-10-16T02:12:21;6.00;;;5.43;;
3407;SDS011;1717;50.240;8.406;2022-10-16T02:14:52;5.60;;;5.00;;
3407;SDS011;1717;50.240;8.406;2022-10-16T02:17:19;5.30;;;4.83;;
3407;SDS011;1717;50.240;8.406;2022-10-16T02:19:46;5.20;;;4.80;;
3407;SDS011;1717;50.240;8.406;2022-10-16T02:22:16;5.33;;;4.83;;
3407;SDS011;1717;50.240;8.406;2022-10-16T02:24:50;7.37;;;5.23;;
3407;SDS011;1717;50.240;8.406;2022-10-16T02:27:24;5.60;;;4.97;;
3407;SDS011;1717;50.240;8.406;2022-10-16T02:29:58;5.90;;;5.30;;
3407;SDS011;1717;50.240;8.406;2022-10-16T02:32:32;5.33;;;4.93;;
3407;SDS011;1717;50.240;8.406;2022-10-16T02:35:02;9.37;;;6.20;;
3407;SDS011;1717;50.240;8.406;2022-10-16T02:37:29;5.53;;;5.03;;
3407;SDS011;1717;50.240;8.406;2022-10-16T02:39:58;6.00;;;5.40;;
3407;SDS011;1717;50.240;8.406;2022-10-16T02:42:29;6.00;;;5.40;;
3407;SDS011;1717;50.240;8.406;2022-10-16T02:44:59;6.67;;;5.50;;
3407;SDS011;1717;50.240;8.406;2022-10-16T02:47:26;6.30;;;5.60;;
3407;SDS011;1717;50.240;8.406;2022-10-16T02:49:53;5.57;;;4.87;;
3407;SDS011;1717;50.240;8.406;2022-10-16T02:52:20;7.73;;;5.37;;
3407;SDS011;1717;50.240;8.406;2022-10-16T02:54:47;5.97;;;5.37;;
3407;SDS011;1717;50.240;8.406;2022-10-16T02:57:13;10.10;;;6.20;;
3407;SDS011;1717;50.240;8.406;2022-10-16T02:59:42;5.80;;;5.20;;
3407;SDS011;1717;50.240;8.406;2022-10-16T03:02:09;8.30;;;5.43;;
3407;SDS011;1717;50.240;8.406;2022-10-16T03:04:36;7.53;;;6.10;;
3407;SDS011;1717;50.240;8.406;2022-10-16T03:07:03;5.37;;;4.90;;
3407;SDS011;1717;50.240;8.406;2022-10-16T03:09:30;4.50;;;4.10;;
3407;SDS011;1717;50.240;8.406;2022-10-16T03:11:56;4.97;;;4.57;;
3407;SDS011;1717;50.240;8.406;2022-10-16T03:14:23;4.23;;;3.83;;
3407;SDS011;1717;50.240;8.406;2022-10-16T03:16:51;5.40;;;3.53;;
3407;SDS011;1717;50.240;8.406;2022-10-16T03:19:18;3.53;;;3.23;;
3407;SDS011;1717;50.240;8.406;2022-10-16T03:21:45;3.37;;;3.13;;
3407;SDS011;1717;50.240;8.406;2022-10-16T03:24:12;3.30;;;3.00;;
3407;SDS011;1717;50.240;8.406;2022-10-16T03:26:39;6.43;;;3.60;;
3407;SDS011;1717;50.240;8.406;2022-10-16T03:29:05;3.80;;;3.20;;
3407;SDS011;1717;50.240;8.406;2022-10-16T03:31:32;4.07;;;3.77;;
3407;SDS011;1717;50.240;8.406;2022-10-16T03:34:00;3.67;;;3.30;;
3407;SDS011;1717;50.240;8.406;2022-10-16T03:36:27;4.27;;;3.63;;
3407;SDS011;1717;50.240;8.406;2022-10-16T03:38:54;3.63;;;2.67;;
3407;SDS011;1717;50.240;8.406;2022-10-16T03:41:21;2.67;;;2.47;;
3407;SDS011;1717;50.240;8.406;2022-10-16T03:43:48;2.87;;;2.50;;
3407;SDS011;1717;50.240;8.406;2022-10-16T03:46:14;3.27;;;2.83;;
3407;SDS011;1717;50.240;8.406;2022-10-16T03:48:41;2.80;;;2.60;;
3407;SDS011;1717;50.240;8.406;2022-10-16T03:51:09;3.67;;;2.90;;
3407;SDS011;1717;50.240;8.406;2022-10-16T03:53:36;3.10;;;2.73;;
3407;SDS011;1717;50.240;8.406;2022-10-16T03:56:03;3.30;;;3.00;;
3407;SDS011;1717;50.240;8.406;2022-10-16T03:58:30;2.80;;;2.60;;
3407;SDS011;1717;50.240;8.406;2022-10-16T04:00:57;2.70;;;2.50;;
3407;SDS011;1717;50.240;8.406;2022-10-16T04:03:24;3.70;;;2.90;;
3407;SDS011;1717;50.240;8.406;2022-10-16T04:05:51;3.40;;;3.10;;
3407;SDS011;1717;50.240;8.406;2022-10-16T04:08:19;6.33;;;2.97;;
3407;SDS011;1717;50.240;8.406;2022-10-16T04:10:46;3.90;;;2.80;;
3407;SDS011;1717;50.240;8.406;2022-10-16T04:13:13;3.37;;;3.07;;
3407;SDS011;1717;50.240;8.406;2022-10-16T04:15:40;3.60;;;3.27;;
3407;SDS011;1717;50.240;8.406;2022-10-16T04:18:07;4.00;;;3.70;;
3407;SDS011;1717;50.240;8.406;2022-10-16T04:20:34;5.50;;;3.30;;
3407;SDS011;1717;50.240;8.406;2022-10-16T04:23:00;3.60;;;3.30;;
3407;SDS011;1717;50.240;8.406;2022-10-16T04:25:29;3.57;;;3.27;;
3407;SDS011;1717;50.240;8.406;2022-10-16T04:27:56;3.70;;;3.40;;
3407;SDS011;1717;50.240;8.406;2022-10-16T04:30:23;3.50;;;3.20;;
3407;SDS011;1717;50.240;8.406;2022-10-16T04:32:50;4.17;;;3.57;;
3407;SDS011;1717;50.240;8.406;2022-10-16T04:35:17;3.70;;;2.83;;
3407;SDS011;1717;50.240;8.406;2022-10-16T04:37:44;3.27;;;2.90;;
3407;SDS011;1717;50.240;8.406;2022-10-16T04:40:11;3.50;;;3.20;;
3407;SDS011;1717;50.240;8.406;2022-10-16T04:42:39;3.43;;;3.10;;
3407;SDS011;1717;50.240;8.406;2022-10-16T04:45:06;3.00;;;2.80;;
3407;SDS011;1717;50.240;8.406;2022-10-16T04:47:33;4.50;;;4.10;;
3407;SDS011;1717;50.240;8.406;2022-10-16T04:50:00;3.77;;;3.47;;
3407;SDS011;1717;50.240;8.406;2022-10-16T04:52:27;4.30;;;4.00;;
3407;SDS011;1717;50.240;8.406;2022-10-16T04:54:56;3.90;;;3.60;;
3407;SDS011;1717;50.240;8.406;2022-10-16T04:57:26;4.20;;;3.33;;
3407;SDS011;1717;50.240;8.406;2022-10-16T04:59:54;4.07;;;3.67;;
3407;SDS011;1717;50.240;8.406;2022-10-16T05:02:21;4.60;;;4.20;;
3407;SDS011;1717;50.240;8.406;2022-10-16T05:04:47;3.57;;;3.27;;
3407;SDS011;1717;50.240;8.406;2022-10-16T05:07:14;3.87;;;3.57;;
3407;SDS011;1717;50.240;8.406;2022-10-16T05:09:41;5.37;;;3.80;;
3407;SDS011;1717;50.240;8.406;2022-10-16T05:12:08;5.20;;;4.07;;
3407;SDS011;1717;50.240;8.406;2022-10-16T05:14:34;4.23;;;3.83;;
3407;SDS011;1717;50.240;8.406;2022-10-16T05:17:02;4.33;;;3.93;;
3407;SDS011;1717;50.240;8.406;2022-10-16T05:19:29;4.93;;;3.83;;
3407;SDS011;1717;50.240;8.406;2022-10-16T05:21:56;5.47;;;3.80;;
3407;SDS011;1717;50.240;8.406;2022-10-16T05:24:23;4.23;;;3.83;;
3407;SDS011;1717;50.240;8.406;2022-10-16T05:26:50;4.03;;;3.73;;
3407;SDS011;1717;50.240;8.406;2022-10-16T05:29:16;4.10;;;3.50;;
3407;SDS011;1717;50.240;8.406;2022-10-16T05:31:43;5.90;;;3.70;;
3407;SDS011;1717;50.240;8.406;2022-10-16T05:34:11;4.07;;;3.77;;
3407;SDS011;1717;50.240;8.406;2022-10-16T05:36:38;5.10;;;4.70;;
3407;SDS011;1717;50.240;8.406;2022-10-16T05:39:05;5.30;;;4.50;;
3407;SDS011;1717;50.240;8.406;2022-10-16T05:41:31;4.60;;;4.20;;
3407;SDS011;1717;50.240;8.406;2022-10-16T05:43:58;4.63;;;3.90;;
3407;SDS011;1717;50.240;8.406;2022-10-16T05:46:25;5.03;;;3.87;;
3407;SDS011;1717;50.240;8.406;2022-10-16T05:48:52;4.33;;;3.70;;
3407;SDS011;1717;50.240;8.406;2022-10-16T05:51:20;4.60;;;4.20;;
3407;SDS011;1717;50.240;8.406;2022-10-16T05:53:47;5.30;;;4.63;;
3407;SDS011;1717;50.240;8.406;2022-10-16T05:56:14;4.40;;;4.00;;
3407;SDS011;1717;50.240;8.406;2022-10-16T05:58:41;4.80;;;4.27;;
3407;SDS011;1717;50.240;8.406;2022-10-16T06:01:09;4.33;;;4.03;;
3407;SDS011;1717;50.240;8.406;2022-10-16T06:03:38;4.47;;;4.07;;
3407;SDS011;1717;50.240;8.406;2022-10-16T06:06:09;4.63;;;3.90;;
3407;SDS011;1717;50.240;8.406;2022-10-16T06:08:38;4.37;;;4.03;;
3407;SDS011;1717;50.240;8.406;2022-10-16T06:11:06;4.60;;;4.20;;
3407;SDS011;1717;50.240;8.406;2022-10-16T06:13:34;4.27;;;3.87;;
3407;SDS011;1717;50.240;8.406;2022-10-16T06:16:01;4.37;;;3.97;;
3407;SDS011;1717;50.240;8.406;2022-10-16T06:18:29;4.30;;;4.00;;
3407;SDS011;1717;50.240;8.406;2022-10-16T06:20:56;4.37;;;3.97;;
3407;SDS011;1717;50.240;8.406;2022-10-16T06:23:23;4.70;;;4.30;;
3407;SDS011;1717;50.240;8.406;2022-10-16T06:25:51;5.17;;;4.67;;
3407;SDS011;1717;50.240;8.406;2022-10-16T06:28:18;5.07;;;4.00;;
3407;SDS011;1717;50.240;8.406;2022-10-16T06:30:45;4.43;;;4.03;;
3407;SDS011;1717;50.240;8.406;2022-10-16T06:33:12;5.10;;;4.47;;
3407;SDS011;1717;50.240;8.406;2022-10-16T06:35:39;4.97;;;4.47;;
3407;SDS011;1717;50.240;8.406;2022-10-16T06:38:05;5.33;;;4.40;;
3407;SDS011;1717;50.240;8.406;2022-10-16T06:40:32;5.00;;;4.40;;
3407;SDS011;1717;50.240;8.406;2022-10-16T06:43:00;5.07;;;4.57;;
3407;SDS011;1717;50.240;8.406;2022-10-16T06:45:27;5.43;;;4.90;;
3407;SDS011;1717;50.240;8.406;2022-10-16T06:47:54;5.83;;;4.67;;
3407;SDS011;1717;50.240;8.406;2022-10-16T06:50:20;7.03;;;5.80;;
3407;SDS011;1717;50.240;8.406;2022-10-16T06:52:47;6.13;;;5.57;;
3407;SDS011;1717;50.240;8.406;2022-10-16T06:55:14;5.50;;;5.00;;
3407;SDS011;1717;50.240;8.406;2022-10-16T06:57:42;6.07;;;5.57;;
3407;SDS011;1717;50.240;8.406;2022-10-16T07:00:10;5.60;;;5.10;;
3407;SDS011;1717;50.240;8.406;2022-10-16T07:02:37;5.80;;;5.27;;
3407;SDS011;1717;50.240;8.406;2022-10-16T07:05:04;6.87;;;6.00;;
3407;SDS011;1717;50.240;8.406;2022-10-16T07:07:31;5.60;;;5.07;;
3407;SDS011;1717;50.240;8.406;2022-10-16T07:09:58;6.13;;;5.53;;
3407;SDS011;1717;50.240;8.406;2022-10-16T07:12:25;5.77;;;5.03;;
3407;SDS011;1717;50.240;8.406;2022-10-16T07:14:51;6.87;;;6.17;;
3407;SDS011;1717;50.240;8.406;2022-10-16T07:17:21;9.10;;;6.67;;
3407;SDS011;1717;50.240;8.406;2022-10-16T07:19:47;7.10;;;6.40;;
3407;SDS011;1717;50.240;8.406;2022-10-16T07:22:14;7.03;;;5.73;;
3407;SDS011;1717;50.240;8.406;2022-10-16T07:24:41;6.93;;;6.23;;
3407;SDS011;1717;50.240;8.406;2022-10-16T07:27:08;7.30;;;5.50;;
3407;SDS011;1717;50.240;8.406;2022-10-16T07:29:35;6.77;;;6.17;;
3407;SDS011;1717;50.240;8.406;2022-10-16T07:32:02;7.67;;;6.97;;
3407;SDS011;1717;50.240;8.406;2022-10-16T07:34:30;6.93;;;5.97;;
3407;SDS011;1717;50.240;8.406;2022-10-16T07:36:57;6.80;;;6.10;;
3407;SDS011;1717;50.240;8.406;2022-10-16T07:39:23;9.60;;;7.80;;
3407;SDS011;1717;50.240;8.406;2022-10-16T07:41:50;8.07;;;6.83;;
3407;SDS011;1717;50.240;8.406;2022-10-16T07:44:17;7.50;;;6.73;;
3407;SDS011;1717;50.240;8.406;2022-10-16T07:46:44;9.13;;;6.60;;
3407;SDS011;1717;50.240;8.406;2022-10-16T07:49:11;8.80;;;6.77;;
3407;SDS011;1717;50.240;8.406;2022-10-16T07:51:39;7.60;;;6.80;;
3407;SDS011;1717;50.240;8.406;2022-10-16T07:54:07;8.07;;;7.27;;
3407;SDS011;1717;50.240;8.406;2022-10-16T07:56:34;11.13;;;7.67;;
3407;SDS011;1717;50.240;8.406;2022-10-16T07:59:02;8.17;;;7.37;;
3407;SDS011;1717;50.240;8.406;2022-10-16T08:01:29;8.43;;;7.47;;
3407;SDS011;1717;50.240;8.406;2022-10-16T08:03:55;9.63;;;8.00;;
3407;SDS011;1717;50.240;8.406;2022-10-16T08:06:22;11.90;;;8.60;;
3407;SDS011;1717;50.240;8.406;2022-10-16T08:08:51;8.00;;;7.30;;
3407;SDS011;1717;50.240;8.406;2022-10-16T08:11:17;8.67;;;7.83;;
3407;SDS011;1717;50.240;8.406;2022-10-16T08:13:45;8.80;;;7.90;;
3407;SDS011;1717;50.240;8.406;2022-10-16T08:16:11;8.63;;;7.80;;
3407;SDS011;1717;50.240;8.406;2022-10-16T08:18:39;10.50;;;6.93;;
3407;SDS011;1717;50.240;8.406;2022-10-16T08:21:07;8.40;;;7.43;;
3407;SDS011;1717;50.240;8.406;2022-10-16T08:23:38;9.07;;;8.17;;
3407;SDS011;1717;50.240;8.406;2022-10-16T08:26:07;7.90;;;7.10;;
3407;SDS011;1717;50.240;8.406;2022-10-16T08:28:35;7.00;;;6.40;;
3407;SDS011;1717;50.240;8.406;2022-10-16T08:31:06;9.00;;;8.10;;
3407;SDS011;1717;50.240;8.406;2022-10-16T08:33:35;8.73;;;7.93;;
3407;SDS011;1717;50.240;8.406;2022-10-16T08:36:02;7.43;;;6.73;;
3407;SDS011;1717;50.240;8.406;2022-10-16T08:38:30;10.03;;;7.73;;
3407;SDS011;1717;50.240;8.406;2022-10-16T08:41:08;9.87;;;8.87;;
3407;SDS011;1717;50.240;8.406;2022-10-16T08:43:55;10.93;;;9.83;;
3407;SDS011;1717;50.240;8.406;2022-10-16T08:46:35;15.23;;;11.90;;
3407;SDS011;1717;50.240;8.406;2022-10-16T08:49:10;20.47;;;18.27;;
3407;SDS011;1717;50.240;8.406;2022-10-16T08:51:40;20.00;;;15.30;;
3407;SDS011;1717;50.240;8.406;2022-10-16T08:54:15;29.03;;;23.17;;
3407;SDS011;1717;50.240;8.406;2022-10-16T08:56:54;21.93;;;18.50;;
3407;SDS011;1717;50.240;8.406;2022-10-16T08:59:22;20.33;;;17.10;;
3407;SDS011;1717;50.240;8.406;2022-10-16T09:01:50;20.20;;;18.10;;
3407;SDS011;1717;50.240;8.406;2022-10-16T09:04:37;17.80;;;16.00;;
3407;SDS011;1717;50.240;8.406;2022-10-16T09:07:19;20.97;;;17.00;;
3407;SDS011;1717;50.240;8.406;2022-10-16T09:09:54;16.57;;;14.50;;
3407;SDS011;1717;50.240;8.406;2022-10-16T09:12:35;17.60;;;15.80;;
3407;SDS011;1717;50.240;8.406;2022-10-16T09:15:12;16.63;;;13.90;;
3407;SDS011;1717;50.240;8.406;2022-10-16T09:17:50;15.63;;;14.03;;
3407;SDS011;1717;50.240;8.406;2022-10-16T09:20:27;15.00;;;13.43;;
3407;SDS011;1717;50.240;8.406;2022-10-16T09:23:00;14.80;;;13.20;;
3407;SDS011;1717;50.240;8.406;2022-10-16T09:25:39;14.57;;;12.97;;
3407;SDS011;1717;50.240;8.406;2022-10-16T09:28:11;13.03;;;10.33;;
3407;SDS011;1717;50.240;8.406;2022-10-16T09:30:39;12.60;;;11.03;;
3407;SDS011;1717;50.240;8.406;2022-10-16T09:33:07;10.70;;;9.60;;
3407;SDS011;1717;50.240;8.406;2022-10-16T09:35:37;8.30;;;7.50;;
3407;SDS011;1717;50.240;8.406;2022-10-16T09:38:06;7.30;;;6.60;;
3407;SDS011;1717;50.240;8.406;2022-10-16T09:40:34;12.00;;;7.57;;
3407;SDS011;1717;50.240;8.406;2022-10-16T09:43:06;13.10;;;11.80;;
3407;SDS011;1717;50.240;8.406;2022-10-16T09:45:53;25.40;;;19.33;;
3407;SDS011;1717;50.240;8.406;2022-10-16T09:48:21;15.43;;;12.80;;
3407;SDS011;1717;50.240;8.406;2022-10-16T09:50:56;17.03;;;13.47;;
3407;SDS011;1717;50.240;8.406;2022-10-16T09:53:24;14.03;;;11.77;;
3407;SDS011;1717;50.240;8.406;2022-10-16T09:56:03;10.90;;;7.33;;
3407;SDS011;1717;50.240;8.406;2022-10-16T09:58:32;13.30;;;11.47;;
3407;SDS011;1717;50.240;8.406;2022-10-16T10:00:59;16.83;;;13.83;;
3407;SDS011;1717;50.240;8.406;2022-10-16T10:03:32;29.93;;;25.13;;
3407;SDS011;1717;50.240;8.406;2022-10-16T10:06:06;10.60;;;9.33;;
3407;SDS011;1717;50.240;8.406;2022-10-16T10:08:52;8.60;;;7.20;;
3407;SDS011;1717;50.240;8.406;2022-10-16T10:11:44;5.73;;;5.17;;
3407;SDS011;1717;50.240;8.406;2022-10-16T10:14:19;8.73;;;7.87;;
3407;SDS011;1717;50.240;8.406;2022-10-16T10:16:49;10.70;;;7.77;;
3407;SDS011;1717;50.240;8.406;2022-10-16T10:19:17;6.50;;;5.40;;
3407;SDS011;1717;50.240;8.406;2022-10-16T10:21:46;6.13;;;5.53;;
3407;SDS011;1717;50.240;8.406;2022-10-16T10:24:14;5.77;;;4.97;;
3407;SDS011;1717;50.240;8.406;2022-10-16T10:26:44;7.20;;;5.67;;
3407;SDS011;1717;50.240;8.406;2022-10-16T10:29:19;6.40;;;5.50;;
3407;SDS011;1717;50.240;8.406;2022-10-16T10:31:58;6.20;;;5.60;;
3407;SDS011;1717;50.240;8.406;2022-10-16T10:37:51;6.20;;;5.37;;
3407;SDS011;1717;50.240;8.406;2022-10-16T10:40:33;21.30;;;15.70;;
3407;SDS011;1717;50.240;8.406;2022-10-16T10:43:14;8.47;;;6.33;;
3407;SDS011;1717;50.240;8.406;2022-10-16T10:45:57;6.10;;;5.57;;
3407;SDS011;1717;50.240;8.406;2022-10-16T10:51:26;6.10;;;5.10;;
3407;SDS011;1717;50.240;8.406;2022-10-16T10:54:02;5.20;;;4.40;;
3407;SDS011;1717;50.240;8.406;2022-10-16T10:56:42;4.13;;;3.73;;
3407;SDS011;1717;50.240;8.406;2022-10-16T10:59:20;5.53;;;4.10;;
3407;SDS011;1717;50.240;8.406;2022-10-16T11:02:07;4.80;;;3.87;;
3407;SDS011;1717;50.240;8.406;2022-10-16T11:04:47;5.40;;;3.87;;
3407;SDS011;1717;50.240;8.406;2022-10-16T11:07:34;6.23;;;3.13;;
3407;SDS011;1717;50.240;8.406;2022-10-16T11:10:09;3.73;;;3.43;;
3407;SDS011;1717;50.240;8.406;2022-10-16T11:12:41;3.03;;;2.83;;
3407;SDS011;1717;50.240;8.406;2022-10-16T11:15:12;4.33;;;3.47;;
3407;SDS011;1717;50.240;8.406;2022-10-16T11:17:46;5.17;;;4.40;;
3407;SDS011;1717;50.240;8.406;2022-10-16T11:20:19;7.37;;;6.67;;
3407;SDS011;1717;50.240;8.406;2022-10-16T11:22:50;4.43;;;4.13;;
3407;SDS011;1717;50.240;8.406;2022-10-16T11:25:21;3.93;;;3.60;;
3407;SDS011;1717;50.240;8.406;2022-10-16T11:27:54;4.70;;;4.13;;
3407;SDS011;1717;50.240;8.406;2022-10-16T11:30:28;3.50;;;3.20;;
3407;SDS011;1717;50.240;8.406;2022-10-16T11:33:08;3.30;;;3.00;;
3407;SDS011;1717;50.240;8.406;2022-10-16T11:35:49;4.00;;;3.60;;
3407;SDS011;1717;50.240;8.406;2022-10-16T11:38:24;7.07;;;3.60;;
3407;SDS011;1717;50.240;8.406;2022-10-16T11:40:57;3.50;;;2.80;;
3407;SDS011;1717;50.240;8.406;2022-10-16T11:43:29;5.50;;;4.07;;
3407;SDS011;1717;50.240;8.406;2022-10-16T11:46:04;7.83;;;5.20;;
3407;SDS011;1717;50.240;8.406;2022-10-16T11:48:39;3.27;;;2.97;;
3407;SDS011;1717;50.240;8.406;2022-10-16T11:51:14;5.10;;;2.93;;
3407;SDS011;1717;50.240;8.406;2022-10-16T11:53:50;3.90;;;2.97;;
3407;SDS011;1717;50.240;8.406;2022-10-16T11:56:22;2.97;;;2.77;;
3407;SDS011;1717;50.240;8.406;2022-10-16T11:58:52;3.40;;;3.10;;
3407;SDS011;1717;50.240;8.406;2022-10-16T12:01:27;3.10;;;2.70;;
3407;SDS011;1717;50.240;8.406;2022-10-16T12:04:02;4.70;;;3.13;;
3407;SDS011;1717;50.240;8.406;2022-10-16T12:06:41;4.43;;;2.70;;
3407;SDS011;1717;50.240;8.406;2022-10-16T12:09:15;5.43;;;2.93;;
3407;SDS011;1717;50.240;8.406;2022-10-16T12:11:51;3.03;;;2.83;;
3407;SDS011;1717;50.240;8.406;2022-10-16T12:14:32;3.17;;;2.87;;
3407;SDS011;1717;50.240;8.406;2022-10-16T12:17:02;2.70;;;2.23;;
3407;SDS011;1717;50.240;8.406;2022-10-16T12:19:33;2.50;;;2.30;;
3407;SDS011;1717;50.240;8.406;2022-10-16T12:22:00;2.30;;;2.10;;
3407;SDS011;1717;50.240;8.406;2022-10-16T12:24:32;3.33;;;2.30;;
3407;SDS011;1717;50.240;8.406;2022-10-16T12:27:02;2.50;;;2.30;;
3407;SDS011;1717;50.240;8.406;2022-10-16T12:29:33;2.53;;;2.33;;
3407;SDS011;1717;50.240;8.406;2022-10-16T12:32:03;3.57;;;2.77;;
3407;SDS011;1717;50.240;8.406;2022-10-16T12:34:35;2.63;;;2.43;;
3407;SDS011;1717;50.240;8.406;2022-10-16T12:37:10;6.00;;;3.00;;
3407;SDS011;1717;50.240;8.406;2022-10-16T12:39:40;3.50;;;2.30;;
3407;SDS011;1717;50.240;8.406;2022-10-16T12:42:22;3.90;;;3.17;;
3407;SDS011;1717;50.240;8.406;2022-10-16T12:44:57;4.73;;;2.27;;
3407;SDS011;1717;50.240;8.406;2022-10-16T12:47:24;2.63;;;2.43;;
3407;SDS011;1717;50.240;8.406;2022-10-16T12:50:21;2.80;;;2.47;;
3407;SDS011;1717;50.240;8.406;2022-10-16T12:52:56;2.93;;;2.60;;
3407;SDS011;1717;50.240;8.406;2022-10-16T12:55:23;8.20;;;2.40;;
3407;SDS011;1717;50.240;8.406;2022-10-16T12:58:00;5.80;;;3.40;;
3407;SDS011;1717;50.240;8.406;2022-10-16T13:00:38;2.77;;;2.57;;
3407;SDS011;1717;50.240;8.406;2022-10-16T13:03:21;3.07;;;2.87;;
3407;SDS011;1717;50.240;8.406;2022-10-16T13:06:13;2.67;;;2.47;;
3407;SDS011;1717;50.240;8.406;2022-10-16T13:08:52;3.50;;;2.67;;
3407;SDS011;1717;50.240;8.406;2022-10-16T13:11:37;2.87;;;2.60;;
3407;SDS011;1717;50.240;8.406;2022-10-16T13:17:15;3.50;;;2.70;;
3407;SDS011;1717;50.240;8.406;2022-10-16T13:19:52;2.90;;;2.53;;
3407;SDS011;1717;50.240;8.406;2022-10-16T13:22:30;7.23;;;2.70;;
3407;SDS011;1717;50.240;8.406;2022-10-16T13:25:13;2.93;;;2.33;;
3407;SDS011;1717;50.240;8.406;2022-10-16T13:27:52;3.37;;;2.93;;
3407;SDS011;1717;50.240;8.406;2022-10-16T13:30:24;2.10;;;2.00;;
3407;SDS011;1717;50.240;8.406;2022-10-16T13:32:55;2.27;;;2.07;;
3407;SDS011;1717;50.240;8.406;2022-10-16T13:35:28;3.00;;;2.70;;
3407;SDS011;1717;50.240;8.406;2022-10-16T13:38:05;4.47;;;2.57;;
3407;SDS011;1717;50.240;8.406;2022-10-16T13:40:47;2.50;;;2.17;;
3407;SDS011;1717;50.240;8.406;2022-10-16T13:43:17;2.70;;;2.33;;
3407;SDS011;1717;50.240;8.406;2022-10-16T13:45:55;4.10;;;2.03;;
3407;SDS011;1717;50.240;8.406;2022-10-16T13:48:24;2.67;;;2.47;;
3407;SDS011;1717;50.240;8.406;2022-10-16T13:50:58;2.37;;;2.17;;
3407;SDS011;1717;50.240;8.406;2022-10-16T13:53:29;7.60;;;3.07;;
3407;SDS011;1717;50.240;8.406;2022-10-16T13:55:57;3.17;;;2.00;;
3407;SDS011;1717;50.240;8.406;2022-10-16T13:58:25;2.40;;;2.23;;
3407;SDS011;1717;50.240;8.406;2022-10-16T14:00:53;5.17;;;2.60;;
3407;SDS011;1717;50.240;8.406;2022-10-16T14:03:22;2.57;;;2.37;;
3407;SDS011;1717;50.240;8.406;2022-10-16T14:05:51;2.70;;;2.50;;
3407;SDS011;1717;50.240;8.406;2022-10-16T14:08:18;3.50;;;2.90;;
3407;SDS011;1717;50.240;8.406;2022-10-16T14:10:48;4.57;;;2.70;;
3407;SDS011;1717;50.240;8.406;2022-10-16T14:13:17;2.80;;;2.50;;
3407;SDS011;1717;50.240;8.406;2022-10-16T14:15:47;2.10;;;1.90;;
3407;SDS011;1717;50.240;8.406;2022-10-16T14:18:18;2.67;;;2.47;;
3407;SDS011;1717;50.240;8.406;2022-10-16T14:20:48;9.53;;;3.27;;
3407;SDS011;1717;50.240;8.406;2022-10-16T14:23:20;3.60;;;3.30;;
3407;SDS011;1717;50.240;8.406;2022-10-16T14:25:52;4.37;;;2.93;;
3407;SDS011;1717;50.240;8.406;2022-10-16T14:28:20;4.27;;;3.00;;
3407;SDS011;1717;50.240;8.406;2022-10-16T14:30:50;3.73;;;2.70;;
3407;SDS011;1717;50.240;8.406;2022-10-16T14:33:20;2.73;;;2.50;;
3407;SDS011;1717;50.240;8.406;2022-10-16T14:35:59;3.40;;;3.10;;
3407;SDS011;1717;50.240;8.406;2022-10-16T14:38:31;8.23;;;3.57;;
3407;SDS011;1717;50.240;8.406;2022-10-16T14:41:00;3.90;;;3.53;;
3407;SDS011;1717;50.240;8.406;2022-10-16T14:43:31;2.60;;;2.40;;
3407;SDS011;1717;50.240;8.406;2022-10-16T14:45:59;2.50;;;2.30;;
3407;SDS011;1717;50.240;8.406;2022-10-16T14:48:29;3.33;;;2.87;;
3407;SDS011;1717;50.240;8.406;2022-10-16T14:50:56;3.80;;;2.50;;
3407;SDS011;1717;50.240;8.406;2022-10-16T14:53:23;3.10;;;2.30;;
3407;SDS011;1717;50.240;8.406;2022-10-16T14:55:50;2.50;;;2.30;;
3407;SDS011;1717;50.240;8.406;2022-10-16T14:58:19;2.40;;;2.20;;
3407;SDS011;1717;50.240;8.406;2022-10-16T15:00:48;4.33;;;2.60;;
3407;SDS011;1717;50.240;8.406;2022-10-16T15:03:15;2.47;;;2.27;;
3407;SDS011;1717;50.240;8.406;2022-10-16T15:05:43;2.37;;;2.27;;
3407;SDS011;1717;50.240;8.406;2022-10-16T15:08:11;2.60;;;2.17;;
3407;SDS011;1717;50.240;8.406;2022-10-16T15:10:39;2.83;;;2.63;;
3407;SDS011;1717;50.240;8.406;2022-10-16T15:13:11;3.33;;;3.00;;
3407;SDS011;1717;50.240;8.406;2022-10-16T15:15:41;2.73;;;2.53;;
3407;SDS011;1717;50.240;8.406;2022-10-16T15:18:09;3.80;;;2.93;;
3407;SDS011;1717;50.240;8.406;2022-10-16T15:20:39;2.50;;;2.30;;
3407;SDS011;1717;50.240;8.406;2022-10-16T15:23:10;3.37;;;2.83;;
3407;SDS011;1717;50.240;8.406;2022-10-16T15:25:42;2.93;;;2.73;;
3407;SDS011;1717;50.240;8.406;2022-10-16T15:28:11;3.00;;;2.70;;
3407;SDS011;1717;50.240;8.406;2022-10-16T15:30:41;3.10;;;2.47;;
3407;SDS011;1717;50.240;8.406;2022-10-16T15:33:11;3.23;;;2.93;;
3407;SDS011;1717;50.240;8.406;2022-10-16T15:35:40;2.80;;;2.60;;
3407;SDS011;1717;50.240;8.406;2022-10-16T15:38:08;3.00;;;2.80;;
3407;SDS011;1717;50.240;8.406;2022-10-16T15:40:39;2.70;;;2.50;;
3407;SDS011;1717;50.240;8.406;2022-10-16T15:43:06;3.47;;;3.17;;
3407;SDS011;1717;50.240;8.406;2022-10-16T15:45:34;3.70;;;3.03;;